createdAt,value
2023-08-06T00:02:07.797Z,16.72
2023-08-06T00:04:36.055Z,16.86
2023-08-06T00:07:05.048Z,16.93
2023-08-06T00:09:33.261Z,16.94
2023-08-06T00:12:01.769Z,16.88
2023-08-06T00:14:31.358Z,16.93
2023-08-06T00:16:59.918Z,16.98
2023-08-06T00:19:28.212Z,16.98
2023-08-06T00:21:56.732Z,17.05
2023-08-06T00:24:24.891Z,17.09
2023-08-06T00:26:53.355Z,17.12
2023-08-06T00:29:21.744Z,17.02
2023-08-06T00:31:51.743Z,17.22
2023-08-06T00:34:20.146Z,17.35
2023-08-06T00:36:49.028Z,17.32
2023-08-06T00:39:17.200Z,17.34
2023-08-06T00:41:45.637Z,17.28
2023-08-06T00:44:13.904Z,17.37
2023-08-06T00:46:42.567Z,17.28
2023-08-06T00:49:12.272Z,17.30
2023-08-06T00:51:40.867Z,17.22
2023-08-06T00:54:09.136Z,17.36
2023-08-06T00:56:39.301Z,17.29
2023-08-06T00:59:12.767Z,17.27
2023-08-06T01:01:41.784Z,17.26
2023-08-06T01:04:12.320Z,17.24
2023-08-06T01:06:46.389Z,17.27
2023-08-06T01:09:29.234Z,17.47
2023-08-06T01:12:07.645Z,17.46
2023-08-06T01:14:47.518Z,17.52
2023-08-06T01:17:19.264Z,17.53
2023-08-06T01:19:48.944Z,17.52
2023-08-06T01:22:18.815Z,17.54
2023-08-06T01:24:51.140Z,17.30
2023-08-06T01:27:29.484Z,17.24
2023-08-06T01:30:06.255Z,17.19
2023-08-06T01:32:37.733Z,17.13
2023-08-06T01:35:07.653Z,17.06
2023-08-06T01:37:38.725Z,17.08
2023-08-06T01:40:09.522Z,17.11
2023-08-06T01:42:40.525Z,17.03
2023-08-06T01:45:10.122Z,17.19
2023-08-06T01:47:39.018Z,17.14
2023-08-06T01:50:08.073Z,17.16
2023-08-06T01:52:37.705Z,17.15
2023-08-06T01:55:06.144Z,17.07
2023-08-06T01:57:35.200Z,17.07
2023-08-06T02:00:04.415Z,17.16
2023-08-06T02:02:32.954Z,17.06
2023-08-06T02:05:01.190Z,17.07
2023-08-06T02:07:32.001Z,17.04
2023-08-06T02:10:01.725Z,17.02
2023-08-06T02:12:30.226Z,16.96
2023-08-06T02:14:58.388Z,17.06
2023-08-06T02:17:26.924Z,16.82
2023-08-06T02:19:55.182Z,16.92
2023-08-06T02:22:24.244Z,16.68
2023-08-06T02:24:52.448Z,16.77
2023-08-06T02:27:22.274Z,16.84
2023-08-06T02:29:52.913Z,16.74
2023-08-06T02:32:21.408Z,16.87
2023-08-06T02:34:49.597Z,16.66
2023-08-06T02:37:18.050Z,16.57
2023-08-06T02:39:46.690Z,16.57
2023-08-06T02:42:15.160Z,16.61
2023-08-06T02:44:44.693Z,16.58
2023-08-06T02:47:13.165Z,16.53
2023-08-06T02:49:41.527Z,16.44
2023-08-06T02:52:10.114Z,16.58
2023-08-06T02:54:38.290Z,16.44
2023-08-06T02:57:07.947Z,16.45
2023-08-06T02:59:36.267Z,16.45
2023-08-06T03:02:06.814Z,16.46
2023-08-06T03:04:35.090Z,16.50
2023-08-06T03:07:03.628Z,16.47
2023-08-06T03:09:31.902Z,16.46
2023-08-06T03:12:00.386Z,16.54
2023-08-06T03:14:28.608Z,16.54
2023-08-06T03:16:57.143Z,16.58
2023-08-06T03:19:26.706Z,16.61
2023-08-06T03:21:55.788Z,16.79
2023-08-06T03:24:24.058Z,16.77
2023-08-06T03:26:52.549Z,16.86
2023-08-06T03:29:21.286Z,16.86
2023-08-06T03:31:50.264Z,16.92
2023-08-06T03:34:18.664Z,16.95
2023-08-06T03:36:48.707Z,17.09
2023-08-06T03:39:17.057Z,17.05
2023-08-06T03:41:45.665Z,17.21
2023-08-06T03:44:13.884Z,17.17
2023-08-06T03:46:42.487Z,17.33
2023-08-06T03:49:10.927Z,17.29
2023-08-06T03:51:39.415Z,17.28
2023-08-06T03:54:08.996Z,17.41
2023-08-06T03:56:37.461Z,17.33
2023-08-06T03:59:05.664Z,17.40
2023-08-06T04:01:34.167Z,17.43
2023-08-06T04:04:02.326Z,17.46
2023-08-06T04:06:30.775Z,17.50
2023-08-06T04:08:58.975Z,17.63
2023-08-06T04:11:28.814Z,17.66
2023-08-06T04:13:56.994Z,17.64
2023-08-06T04:16:27.555Z,17.76
2023-08-06T04:18:57.735Z,17.73
2023-08-06T04:21:26.344Z,17.67
2023-08-06T04:23:54.618Z,17.88
2023-08-06T04:26:23.049Z,17.83
2023-08-06T04:28:52.602Z,17.84
2023-08-06T04:31:22.426Z,17.79
2023-08-06T04:33:50.683Z,17.74
2023-08-06T04:36:19.125Z,17.80
2023-08-06T04:38:48.585Z,17.88
2023-08-06T04:41:17.140Z,17.79
2023-08-06T04:43:45.304Z,17.95
2023-08-06T04:46:15.378Z,17.92
2023-08-06T04:48:43.618Z,17.84
2023-08-06T04:51:12.062Z,18.00
2023-08-06T04:53:40.231Z,17.92
2023-08-06T04:56:08.659Z,18.03
2023-08-06T04:58:39.398Z,18.07
2023-08-06T05:01:08.932Z,18.06
2023-08-06T05:03:38.605Z,18.10
2023-08-06T05:06:07.132Z,18.14
2023-08-06T05:08:35.492Z,18.13
2023-08-06T05:11:04.044Z,18.23
2023-08-06T05:13:32.242Z,18.21
2023-08-06T05:16:00.820Z,18.13
2023-08-06T05:18:29.434Z,18.20
2023-08-06T05:20:59.303Z,18.02
2023-08-06T05:23:27.728Z,18.15
2023-08-06T05:25:58.581Z,18.05
2023-08-06T05:28:27.034Z,18.23
2023-08-06T05:30:55.495Z,18.22
2023-08-06T05:33:23.696Z,18.27
2023-08-06T05:35:52.377Z,18.16
2023-08-06T05:38:21.986Z,18.20
2023-08-06T05:40:53.159Z,18.18
2023-08-06T05:43:21.467Z,18.18
2023-08-06T05:45:52.224Z,18.17
2023-08-06T05:48:20.432Z,18.10
2023-08-06T05:50:48.904Z,18.13
2023-08-06T05:53:17.141Z,18.20
2023-08-06T05:55:47.347Z,18.38
2023-08-06T05:58:18.167Z,18.37
2023-08-06T06:00:47.374Z,18.23
2023-08-06T06:03:15.842Z,18.33
2023-08-06T06:05:44.343Z,18.38
2023-08-06T06:08:12.577Z,18.34
2023-08-06T06:10:41.057Z,18.32
2023-08-06T06:13:10.769Z,18.33
2023-08-06T06:15:41.700Z,18.37
2023-08-06T06:18:09.924Z,18.45
2023-08-06T06:20:38.372Z,18.42
2023-08-06T06:23:06.702Z,18.43
2023-08-06T06:25:35.156Z,18.43
2023-08-06T06:28:03.458Z,18.44
2023-08-06T06:30:33.407Z,18.47
2023-08-06T06:33:01.728Z,18.58
2023-08-06T06:35:30.249Z,18.54
2023-08-06T06:37:58.484Z,18.51
2023-08-06T06:40:27.065Z,18.53
2023-08-06T06:42:55.432Z,18.70
2023-08-06T06:45:23.982Z,18.81
2023-08-06T06:47:53.605Z,18.84
2023-08-06T06:50:22.171Z,18.98
2023-08-06T06:52:50.399Z,19.04
2023-08-06T06:55:19.043Z,19.25
2023-08-06T06:57:47.310Z,19.30
2023-08-06T07:00:17.037Z,19.29
2023-08-06T07:02:45.145Z,19.39
2023-08-06T07:05:15.150Z,19.63
2023-08-06T07:07:43.388Z,19.80
2023-08-06T07:10:12.357Z,20.01
2023-08-06T07:12:40.588Z,20.36
2023-08-06T07:15:09.692Z,20.64
2023-08-06T07:17:37.917Z,20.57
2023-08-06T07:20:08.930Z,20.52
2023-08-06T07:22:40.942Z,20.45
2023-08-06T07:25:10.130Z,20.15
2023-08-06T07:27:38.467Z,19.95
2023-08-06T07:30:08.234Z,19.75
2023-08-06T07:32:36.542Z,19.78
2023-08-06T07:35:06.051Z,19.77
2023-08-06T07:37:34.226Z,19.89
2023-08-06T07:40:04.751Z,19.94
2023-08-06T07:42:33.058Z,19.97
2023-08-06T07:45:02.010Z,20.03
2023-08-06T07:47:30.308Z,20.08
2023-08-06T07:49:58.792Z,19.99
2023-08-06T07:52:27.310Z,20.04
2023-08-06T07:54:55.791Z,20.09
2023-08-06T07:57:27.697Z,20.10
2023-08-06T07:59:56.378Z,20.18
2023-08-06T08:02:25.166Z,20.16
2023-08-06T08:04:53.882Z,20.35
2023-08-06T08:07:22.804Z,20.33
2023-08-06T08:09:51.276Z,20.29
2023-08-06T08:12:19.620Z,20.38
2023-08-06T08:14:55.025Z,20.25
2023-08-06T08:17:23.262Z,20.08
2023-08-06T08:19:51.747Z,20.01
2023-08-06T08:22:21.703Z,20.07
2023-08-06T08:24:50.398Z,20.10
2023-08-06T08:27:18.597Z,20.17
2023-08-06T08:29:47.161Z,20.26
2023-08-06T08:32:16.757Z,20.34
2023-08-06T08:34:45.445Z,20.48
2023-08-06T08:37:13.638Z,20.45
2023-08-06T08:39:42.143Z,20.38
2023-08-06T08:42:12.356Z,20.27
2023-08-06T08:44:42.244Z,20.14
2023-08-06T08:47:10.983Z,20.08
2023-08-06T08:49:41.518Z,20.23
2023-08-06T08:52:14.261Z,20.50
2023-08-06T08:54:44.515Z,20.31
2023-08-06T08:57:12.712Z,20.54
2023-08-06T08:59:41.216Z,20.61
2023-08-06T09:02:13.838Z,20.64
2023-08-06T09:04:44.684Z,20.65
2023-08-06T09:07:17.736Z,20.58
2023-08-06T09:09:49.313Z,20.48
2023-08-06T09:12:18.839Z,20.64
2023-08-06T09:14:47.395Z,20.67
2023-08-06T09:17:15.983Z,20.54
2023-08-06T09:19:48.178Z,20.45
2023-08-06T09:22:16.447Z,20.75
2023-08-06T09:24:45.376Z,20.94
2023-08-06T09:27:15.235Z,21.24
2023-08-06T09:29:46.542Z,21.29
2023-08-06T09:32:15.246Z,21.26
2023-08-06T09:34:46.293Z,21.12
2023-08-06T09:37:14.707Z,21.09
2023-08-06T09:39:43.611Z,20.96
2023-08-06T09:42:11.801Z,21.15
2023-08-06T09:44:43.276Z,21.10
2023-08-06T09:47:11.735Z,21.04
2023-08-06T09:49:46.807Z,21.16
2023-08-06T09:52:17.179Z,21.07
2023-08-06T09:54:47.262Z,21.02
2023-08-06T09:57:17.057Z,21.07
2023-08-06T09:59:46.655Z,21.27
2023-08-06T10:02:16.466Z,21.20
2023-08-06T10:04:54.950Z,21.29
2023-08-06T10:07:25.585Z,21.30
2023-08-06T10:09:54.335Z,21.30
2023-08-06T10:12:23.947Z,21.25
2023-08-06T10:14:53.438Z,21.33
2023-08-06T10:17:22.107Z,21.33
2023-08-06T10:19:52.702Z,21.51
2023-08-06T10:22:24.616Z,21.65
2023-08-06T10:24:55.017Z,21.28
2023-08-06T10:27:25.924Z,21.41
2023-08-06T10:29:55.864Z,21.59
2023-08-06T10:32:52.601Z,21.58
2023-08-06T10:35:33.344Z,21.57
2023-08-06T10:38:05.783Z,21.58
2023-08-06T10:40:34.971Z,21.59
2023-08-06T10:43:07.641Z,21.57
2023-08-06T10:45:40.810Z,22.02
2023-08-06T10:48:09.026Z,22.67
2023-08-06T10:50:39.526Z,23.25
2023-08-06T10:53:08.289Z,23.77
2023-08-06T10:55:39.542Z,24.07
2023-08-06T10:58:09.404Z,24.22
2023-08-06T11:00:40.348Z,25.06
2023-08-06T11:03:09.070Z,25.46
2023-08-06T11:05:39.360Z,25.16
2023-08-06T11:08:07.611Z,25.11
2023-08-06T11:10:39.695Z,24.69
2023-08-06T11:13:11.507Z,25.02
2023-08-06T11:15:39.992Z,24.94
2023-08-06T11:18:08.688Z,24.72
2023-08-06T11:20:37.275Z,24.25
2023-08-06T11:23:07.274Z,24.45
2023-08-06T11:25:39.211Z,24.69
2023-08-06T11:28:07.399Z,24.66
2023-08-06T11:30:35.972Z,23.91
2023-08-06T11:33:04.420Z,23.92
2023-08-06T11:35:36.246Z,24.08
2023-08-06T11:38:04.662Z,23.84
2023-08-06T11:40:35.501Z,23.99
2023-08-06T11:43:03.806Z,24.43
2023-08-06T11:45:35.040Z,24.85
2023-08-06T11:48:04.225Z,25.33
2023-08-06T11:50:39.537Z,25.43
2023-08-06T11:53:08.107Z,25.30
2023-08-06T11:55:38.149Z,25.42
2023-08-06T11:58:09.248Z,25.44
2023-08-06T12:00:38.966Z,25.65
2023-08-06T12:03:07.879Z,26.22
2023-08-06T12:05:36.672Z,26.52
2023-08-06T12:08:05.639Z,26.33
2023-08-06T12:10:35.020Z,26.20
2023-08-06T12:13:04.998Z,26.49
2023-08-06T12:15:34.030Z,26.53
2023-08-06T12:18:02.444Z,26.69
2023-08-06T12:20:31.366Z,26.92
2023-08-06T12:22:59.525Z,26.53
2023-08-06T12:25:28.003Z,26.68
2023-08-06T12:27:56.204Z,27.20
2023-08-06T12:30:26.108Z,26.92
2023-08-06T12:32:54.536Z,26.48
2023-08-06T12:35:26.855Z,25.71
2023-08-06T12:37:55.990Z,25.96
2023-08-06T12:40:35.780Z,25.91
2023-08-06T12:43:05.532Z,26.24
2023-08-06T12:45:35.955Z,26.87
2023-08-06T12:48:04.546Z,26.85
2023-08-06T12:50:36.414Z,26.34
2023-08-06T12:53:06.768Z,26.31
2023-08-06T12:55:35.525Z,26.85
2023-08-06T12:58:06.560Z,26.65
2023-08-06T13:00:36.592Z,26.11
2023-08-06T13:03:05.374Z,26.26
2023-08-06T13:05:37.521Z,26.26
2023-08-06T13:08:06.277Z,26.02
2023-08-06T13:10:34.692Z,26.15
2023-08-06T13:13:02.926Z,26.13
2023-08-06T13:15:31.524Z,26.41
2023-08-06T13:18:01.058Z,26.52
2023-08-06T13:20:33.762Z,26.71
2023-08-06T13:23:04.973Z,26.52
2023-08-06T13:25:40.441Z,26.09
2023-08-06T13:28:08.673Z,25.91
2023-08-06T13:30:43.250Z,25.69
2023-08-06T13:33:13.938Z,25.79
2023-08-06T13:35:42.556Z,26.04
2023-08-06T13:38:10.779Z,26.10
2023-08-06T13:40:41.347Z,26.22
2023-08-06T13:43:09.601Z,26.35
2023-08-06T13:45:39.415Z,25.91
2023-08-06T13:48:08.791Z,25.99
2023-08-06T13:50:41.116Z,26.01
2023-08-06T13:53:09.657Z,25.74
2023-08-06T13:55:38.382Z,26.23
2023-08-06T13:58:06.693Z,26.68
2023-08-06T14:00:35.372Z,26.81
2023-08-06T14:03:03.819Z,26.99
2023-08-06T14:05:32.524Z,27.05
2023-08-06T14:08:02.222Z,27.15
2023-08-06T14:10:30.791Z,27.06
2023-08-06T14:13:09.298Z,26.84
2023-08-06T14:15:41.688Z,26.84
2023-08-06T14:18:10.968Z,26.77
2023-08-06T14:20:39.668Z,26.26
2023-08-06T14:23:09.419Z,25.87
2023-08-06T14:25:38.125Z,25.48
2023-08-06T14:28:07.579Z,25.28
2023-08-06T14:30:36.985Z,24.94
2023-08-06T14:33:20.788Z,24.75
2023-08-06T14:35:53.913Z,24.63
2023-08-06T14:38:23.647Z,24.40
2023-08-06T14:40:52.169Z,24.35
2023-08-06T14:43:20.388Z,24.23
2023-08-06T14:45:48.968Z,24.16
2023-08-06T14:48:17.138Z,24.11
2023-08-06T14:50:46.005Z,24.03
2023-08-06T14:53:14.444Z,24.01
2023-08-06T14:55:44.497Z,24.01
2023-08-06T14:58:12.702Z,23.90
2023-08-06T15:00:41.549Z,23.88
2023-08-06T15:03:09.986Z,23.90
2023-08-06T15:05:38.780Z,23.75
2023-08-06T15:08:06.991Z,23.73
2023-08-06T15:10:35.469Z,23.99
2023-08-06T15:13:05.133Z,23.69
2023-08-06T15:15:33.603Z,23.76
2023-08-06T15:18:03.141Z,23.81
2023-08-06T15:20:31.666Z,23.89
2023-08-06T15:22:59.846Z,23.82
2023-08-06T15:25:28.825Z,23.74
2023-08-06T15:27:57.155Z,23.59
2023-08-06T15:30:27.043Z,23.66
2023-08-06T15:32:55.659Z,23.54
2023-08-06T15:35:24.170Z,23.48
2023-08-06T15:37:52.347Z,23.21
2023-08-06T15:40:20.793Z,23.19
2023-08-06T15:42:49.225Z,23.01
2023-08-06T15:45:17.936Z,22.90
2023-08-06T15:47:47.582Z,22.78
2023-08-06T15:50:16.174Z,22.83
2023-08-06T15:52:46.197Z,22.83
2023-08-06T15:55:14.682Z,22.86
2023-08-06T15:57:44.012Z,22.84
2023-08-06T16:00:13.354Z,22.74
2023-08-06T16:02:41.762Z,22.67
2023-08-06T16:05:12.436Z,22.53
2023-08-06T16:07:40.785Z,22.55
2023-08-06T16:10:09.650Z,22.54
2023-08-06T16:12:37.828Z,22.46
2023-08-06T16:15:07.612Z,22.42
2023-08-06T16:17:36.484Z,22.26
2023-08-06T16:20:06.132Z,22.33
2023-08-06T16:22:36.766Z,22.43
2023-08-06T16:25:06.298Z,22.35
2023-08-06T16:27:34.268Z,22.43
2023-08-06T16:30:05.523Z,22.56
2023-08-06T16:32:34.492Z,22.65
2023-08-06T16:35:03.474Z,22.63
2023-08-06T16:37:31.752Z,22.61
2023-08-06T16:40:01.734Z,22.65
2023-08-06T16:42:30.271Z,22.58
2023-08-06T16:44:58.820Z,22.55
2023-08-06T16:47:27.313Z,22.65
2023-08-06T16:49:55.919Z,22.65
2023-08-06T16:52:24.085Z,22.70
2023-08-06T16:54:52.678Z,22.66
2023-08-06T16:57:22.239Z,22.79
2023-08-06T16:59:51.949Z,22.86
2023-08-06T17:02:20.430Z,22.75
2023-08-06T17:04:49.299Z,23.14
2023-08-06T17:07:17.530Z,23.32
2023-08-06T17:09:46.171Z,22.85
2023-08-06T17:12:18.498Z,22.89
2023-08-06T17:14:52.524Z,22.91
2023-08-06T17:17:20.800Z,22.93
2023-08-06T17:19:49.595Z,22.97
2023-08-06T17:22:17.763Z,22.94
2023-08-06T17:24:46.244Z,22.98
2023-08-06T17:27:14.431Z,22.88
2023-08-06T17:29:44.088Z,22.89
2023-08-06T17:32:14.359Z,22.90
2023-08-06T17:34:43.056Z,23.01
2023-08-06T17:37:11.244Z,22.84
2023-08-06T17:39:39.748Z,22.71
2023-08-06T17:42:11.696Z,22.46
2023-08-06T17:44:40.831Z,22.66
2023-08-06T17:47:13.427Z,22.45
2023-08-06T17:49:47.668Z,22.55
2023-08-06T17:52:15.943Z,22.49
2023-08-06T17:54:44.425Z,22.31
2023-08-06T17:57:12.645Z,22.13
2023-08-06T17:59:41.146Z,22.12
2023-08-06T18:02:09.418Z,21.99
2023-08-06T18:04:37.983Z,21.83
2023-08-06T18:07:08.731Z,21.77
2023-08-06T18:09:37.412Z,21.61
2023-08-06T18:12:06.972Z,21.57
2023-08-06T18:17:03.562Z,21.41
2023-08-06T18:19:32.396Z,21.10
2023-08-06T18:22:02.326Z,20.97
2023-08-06T18:24:32.167Z,20.92
2023-08-06T18:27:00.823Z,20.89
2023-08-06T18:29:29.402Z,20.92
2023-08-06T18:31:57.597Z,20.99
2023-08-06T18:34:27.344Z,21.06
2023-08-06T18:36:56.165Z,21.03
2023-08-06T18:39:25.122Z,21.00
2023-08-06T18:41:54.784Z,20.94
2023-08-06T18:44:23.272Z,20.87
2023-08-06T18:46:51.543Z,20.75
2023-08-06T18:49:23.049Z,20.71
2023-08-06T18:51:51.240Z,20.67
2023-08-06T18:54:19.984Z,20.64
2023-08-06T18:56:48.302Z,20.62
2023-08-06T18:59:23.786Z,20.57
2023-08-06T19:01:52.102Z,20.55
2023-08-06T19:04:21.787Z,20.59
2023-08-06T19:06:49.984Z,20.77
2023-08-06T19:09:21.479Z,20.45
2023-08-06T19:11:50.276Z,20.49
2023-08-06T19:14:21.011Z,20.21
2023-08-06T19:16:49.361Z,20.48
2023-08-06T19:19:20.647Z,20.42
2023-08-06T19:21:50.026Z,20.33
2023-08-06T19:24:18.543Z,20.36
2023-08-06T19:26:46.752Z,20.46
2023-08-06T19:29:15.398Z,20.48
2023-08-06T19:31:56.014Z,20.44
2023-08-06T19:34:36.397Z,20.51
2023-08-06T19:37:09.057Z,20.48
2023-08-06T19:39:37.604Z,20.39
2023-08-06T19:42:07.359Z,20.42
2023-08-06T19:44:36.380Z,20.42
2023-08-06T19:47:07.853Z,20.40
2023-08-06T19:49:38.211Z,20.46
2023-08-06T19:52:07.775Z,20.40
2023-08-06T19:54:37.491Z,20.40
2023-08-06T19:57:09.318Z,20.47
2023-08-06T19:59:38.057Z,20.36
2023-08-06T20:02:10.677Z,20.27
2023-08-06T20:04:39.198Z,20.26
2023-08-06T20:07:07.854Z,20.25
2023-08-06T20:09:36.523Z,20.16
2023-08-06T20:12:05.575Z,20.17
2023-08-06T20:14:34.690Z,20.16
2023-08-06T20:17:06.876Z,20.03
2023-08-06T20:19:41.914Z,19.80
2023-08-06T20:22:10.122Z,19.71
2023-08-06T20:24:38.811Z,19.58
2023-08-06T20:27:10.018Z,19.40
2023-08-06T20:29:40.327Z,19.33
2023-08-06T20:32:10.317Z,19.28
2023-08-06T20:34:42.792Z,19.33
2023-08-06T20:37:10.968Z,19.28
2023-08-06T20:39:39.577Z,19.29
2023-08-06T20:42:08.074Z,19.28
2023-08-06T20:44:38.436Z,19.27
2023-08-06T20:47:07.849Z,19.29
2023-08-06T20:49:36.381Z,19.38
2023-08-06T20:52:08.901Z,19.35
2023-08-06T20:54:37.618Z,19.30
2023-08-06T20:57:06.681Z,19.28
2023-08-06T20:59:34.981Z,19.30
2023-08-06T21:02:03.254Z,19.21
2023-08-06T21:04:31.983Z,19.34
2023-08-06T21:07:00.302Z,19.38
2023-08-06T21:09:30.176Z,19.34
2023-08-06T21:11:58.366Z,19.33
2023-08-06T21:14:26.901Z,19.25
2023-08-06T21:16:55.102Z,19.24
2023-08-06T21:19:23.881Z,19.17
2023-08-06T21:21:52.087Z,19.08
2023-08-06T21:24:20.679Z,19.15
2023-08-06T21:26:50.225Z,19.13
2023-08-06T21:29:18.727Z,19.15
2023-08-06T21:31:47.121Z,19.21
2023-08-06T21:34:18.672Z,19.08
2023-08-06T21:36:46.856Z,19.06
2023-08-06T21:39:15.412Z,19.13
2023-08-06T21:41:43.617Z,19.09
2023-08-06T21:44:13.714Z,18.95
2023-08-06T21:46:41.940Z,18.90
2023-08-06T21:49:10.620Z,18.84
2023-08-06T21:51:38.825Z,18.74
2023-08-06T21:54:07.302Z,18.63
2023-08-06T21:56:35.674Z,18.56
2023-08-06T21:59:04.141Z,18.50
2023-08-06T22:01:33.847Z,18.39
2023-08-06T22:04:02.379Z,18.29
2023-08-06T22:06:30.659Z,18.29
2023-08-06T22:08:59.141Z,18.27
2023-08-06T22:11:29.509Z,18.20
2023-08-06T22:13:59.375Z,18.13
2023-08-06T22:16:27.940Z,18.15
2023-08-06T22:18:58.167Z,18.02
2023-08-06T22:21:26.419Z,17.99
2023-08-06T22:23:54.921Z,18.03
2023-08-06T22:26:23.112Z,17.96
2023-08-06T22:29:00.721Z,17.93
2023-08-06T22:31:30.117Z,17.89
2023-08-06T22:34:00.315Z,17.59
2023-08-06T22:36:28.724Z,17.77
2023-08-06T22:38:57.200Z,17.73
2023-08-06T22:41:25.753Z,17.66
2023-08-06T22:43:54.281Z,17.65
2023-08-06T22:46:23.156Z,17.63
2023-08-06T22:48:51.665Z,17.59
2023-08-06T22:51:21.542Z,17.53
2023-08-06T22:53:50.120Z,17.48
2023-08-06T22:56:18.311Z,17.45
2023-08-06T22:58:49.280Z,17.43
2023-08-06T23:01:17.678Z,17.35
2023-08-06T23:03:46.501Z,17.28
2023-08-06T23:06:14.768Z,17.21
2023-08-06T23:08:44.913Z,17.17
2023-08-06T23:11:13.198Z,17.13
2023-08-06T23:13:42.712Z,17.06
2023-08-06T23:16:12.615Z,17.02
2023-08-06T23:18:41.170Z,16.92
2023-08-06T23:21:09.364Z,16.93
2023-08-06T23:23:37.816Z,16.93
2023-08-06T23:26:07.354Z,16.93
2023-08-06T23:28:35.818Z,17.00
2023-08-06T23:31:04.200Z,16.98
2023-08-06T23:33:32.669Z,17.01
2023-08-06T23:36:00.854Z,16.96
2023-08-06T23:38:29.412Z,16.97
2023-08-06T23:40:59.838Z,16.90
2023-08-06T23:43:29.731Z,16.81
2023-08-06T23:46:00.011Z,16.77
2023-08-06T23:48:29.285Z,16.74
2023-08-06T23:50:57.507Z,16.62
2023-08-06T23:53:26.000Z,16.58
2023-08-06T23:55:54.299Z,16.47
2023-08-06T23:58:22.871Z,16.45
